sensor_id;sensor_type;location;lat;lon;timestamp;pressure;altitude;pressure_sealevel;temperature;humidity
57606;BME280;43430;48.204;11.556;2023-01-30T00:01:44;96610.78;;;-3.61;100.00
57606;BME280;43430;48.204;11.556;2023-01-30T00:04:11;96604.25;;;-3.65;100.00
57606;BME280;43430;48.204;11.556;2023-01-30T00:06:37;96597.69;;;-3.58;100.00
57606;BME280;43430;48.204;11.556;2023-01-30T00:09:03;96599.16;;;-3.55;100.00
57606;BME280;43430;48.204;11.556;2023-01-30T00:11:29;96598.47;;;-3.68;100.00
57606;BME280;43430;48.204;11.556;2023-01-30T00:13:56;96591.00;;;-3.71;100.00
57606;BME280;43430;48.204;11.556;2023-01-30T00:16:21;96589.38;;;-3.61;100.00
57606;BME280;43430;48.204;11.556;2023-01-30T00:18:47;96587.22;;;-3.56;100.00
57606;BME280;43430;48.204;11.556;2023-01-30T00:21:13;96594.53;;;-3.61;100.00
57606;BME280;43430;48.204;11.556;2023-01-30T00:23:39;96584.53;;;-3.66;100.00
57606;BME280;43430;48.204;11.556;2023-01-30T00:26:05;96583.38;;;-3.62;100.00
57606;BME280;43430;48.204;11.556;2023-01-30T00:28:31;96577.63;;;-3.65;100.00
57606;BME280;43430;48.204;11.556;2023-01-30T00:30:56;96565.47;;;-3.63;100.00
57606;BME280;43430;48.204;11.556;2023-01-30T00:33:23;96568.03;;;-3.63;100.00
57606;BME280;43430;48.204;11.556;2023-01-30T00:35:50;96567.31;;;-3.65;100.00
57606;BME280;43430;48.204;11.556;2023-01-30T00:38:16;96567.91;;;-3.73;100.00
57606;BME280;43430;48.204;11.556;2023-01-30T00:40:42;96560.66;;;-3.79;100.00
57606;BME280;43430;48.204;11.556;2023-01-30T00:43:14;96561.00;;;-3.72;100.00
57606;BME280;43430;48.204;11.556;2023-01-30T00:45:59;96549.91;;;-3.84;100.00
57606;BME280;43430;48.204;11.556;2023-01-30T00:48:44;96544.63;;;-3.94;100.00
57606;BME280;43430;48.204;11.556;2023-01-30T00:51:10;96544.19;;;-3.99;100.00
57606;BME280;43430;48.204;11.556;2023-01-30T00:53:35;96542.53;;;-4.00;100.00
57606;BME280;43430;48.204;11.556;2023-01-30T00:56:01;96544.66;;;-4.05;100.00
57606;BME280;43430;48.204;11.556;2023-01-30T00:58:27;96535.25;;;-4.06;100.00
57606;BME280;43430;48.204;11.556;2023-01-30T01:00:52;96523.09;;;-4.04;100.00
57606;BME280;43430;48.204;11.556;2023-01-30T01:03:18;96519.72;;;-4.04;100.00
57606;BME280;43430;48.204;11.556;2023-01-30T01:05:44;96521.09;;;-4.00;100.00
57606;BME280;43430;48.204;11.556;2023-01-30T01:08:10;96528.25;;;-4.15;100.00
57606;BME280;43430;48.204;11.556;2023-01-30T01:10:36;96526.72;;;-4.18;100.00
57606;BME280;43430;48.204;11.556;2023-01-30T01:13:02;96532.94;;;-4.09;100.00
57606;BME280;43430;48.204;11.556;2023-01-30T01:15:28;96528.97;;;-4.02;100.00
57606;BME280;43430;48.204;11.556;2023-01-30T01:17:54;96530.59;;;-4.01;100.00
57606;BME280;43430;48.204;11.556;2023-01-30T01:20:21;96526.16;;;-3.99;100.00
57606;BME280;43430;48.204;11.556;2023-01-30T01:22:47;96524.97;;;-4.06;100.00
57606;BME280;43430;48.204;11.556;2023-01-30T01:25:16;96521.56;;;-4.07;100.00
57606;BME280;43430;48.204;11.556;2023-01-30T01:27:43;96525.81;;;-4.06;100.00
57606;BME280;43430;48.204;11.556;2023-01-30T01:30:09;96523.81;;;-4.02;100.00
57606;BME280;43430;48.204;11.556;2023-01-30T01:32:35;96520.28;;;-4.01;100.00
57606;BME280;43430;48.204;11.556;2023-01-30T01:35:00;96524.63;;;-4.01;100.00
57606;BME280;43430;48.204;11.556;2023-01-30T01:37:26;96527.88;;;-3.99;100.00
57606;BME280;43430;48.204;11.556;2023-01-30T01:39:51;96519.34;;;-3.89;100.00
57606;BME280;43430;48.204;11.556;2023-01-30T01:42:36;96510.78;;;-3.89;100.00
57606;BME280;43430;48.204;11.556;2023-01-30T01:47:39;96495.47;;;-3.91;100.00
57606;BME280;43430;48.204;11.556;2023-01-30T01:50:18;96487.03;;;-4.04;100.00
57606;BME280;43430;48.204;11.556;2023-01-30T01:52:46;96482.59;;;-4.02;100.00
57606;BME280;43430;48.204;11.556;2023-01-30T01:55:13;96491.50;;;-4.17;100.00
57606;BME280;43430;48.204;11.556;2023-01-30T01:57:53;96489.88;;;-4.30;100.00
57606;BME280;43430;48.204;11.556;2023-01-30T02:00:20;96496.66;;;-4.40;100.00
57606;BME280;43430;48.204;11.556;2023-01-30T02:02:55;96498.75;;;-4.45;100.00
57606;BME280;43430;48.204;11.556;2023-01-30T02:05:22;96504.97;;;-4.36;100.00
57606;BME280;43430;48.204;11.556;2023-01-30T02:12:57;96514.31;;;-4.46;100.00
57606;BME280;43430;48.204;11.556;2023-01-30T02:15:23;96514.69;;;-4.40;100.00
57606;BME280;43430;48.204;11.556;2023-01-30T02:17:48;96516.06;;;-4.36;100.00
57606;BME280;43430;48.204;11.556;2023-01-30T02:29:20;96517.13;;;-4.38;100.00
57606;BME280;43430;48.204;11.556;2023-01-30T02:32:08;96513.00;;;-4.41;100.00
57606;BME280;43430;48.204;11.556;2023-01-30T02:42:38;96522.84;;;-4.46;100.00
57606;BME280;43430;48.204;11.556;2023-01-30T02:50:20;96517.94;;;-4.38;100.00
57606;BME280;43430;48.204;11.556;2023-01-30T02:52:47;96514.69;;;-4.40;100.00
57606;BME280;43430;48.204;11.556;2023-01-30T02:55:27;96518.41;;;-4.44;100.00
57606;BME280;43430;48.204;11.556;2023-01-30T02:57:53;96517.22;;;-4.51;100.00
57606;BME280;43430;48.204;11.556;2023-01-30T03:00:46;96530.34;;;-4.43;100.00
57606;BME280;43430;48.204;11.556;2023-01-30T03:11:07;96542.34;;;-4.55;100.00
57606;BME280;43430;48.204;11.556;2023-01-30T03:13:42;96536.19;;;-4.41;100.00
57606;BME280;43430;48.204;11.556;2023-01-30T03:16:14;96518.41;;;-4.44;100.00
57606;BME280;43430;48.204;11.556;2023-01-30T03:18:43;96515.34;;;-4.60;100.00
57606;BME280;43430;48.204;11.556;2023-01-30T03:21:10;96510.34;;;-4.50;100.00
57606;BME280;43430;48.204;11.556;2023-01-30T03:23:36;96494.53;;;-4.46;100.00
57606;BME280;43430;48.204;11.556;2023-01-30T03:26:04;96495.00;;;-4.52;100.00
57606;BME280;43430;48.204;11.556;2023-01-30T03:28:31;96493.72;;;-4.58;100.00
57606;BME280;43430;48.204;11.556;2023-01-30T03:30:56;96500.88;;;-4.39;100.00
57606;BME280;43430;48.204;11.556;2023-01-30T03:33:22;96501.69;;;-4.38;100.00
57606;BME280;43430;48.204;11.556;2023-01-30T03:35:48;96493.13;;;-4.50;100.00
57606;BME280;43430;48.204;11.556;2023-01-30T03:38:14;96481.91;;;-4.49;100.00
57606;BME280;43430;48.204;11.556;2023-01-30T03:40:39;96474.91;;;-4.47;100.00
57606;BME280;43430;48.204;11.556;2023-01-30T03:43:05;96478.75;;;-4.53;100.00
57606;BME280;43430;48.204;11.556;2023-01-30T03:45:30;96483.75;;;-4.51;100.00
57606;BME280;43430;48.204;11.556;2023-01-30T03:47:56;96487.63;;;-4.45;100.00
57606;BME280;43430;48.204;11.556;2023-01-30T03:50:21;96486.38;;;-4.40;100.00
57606;BME280;43430;48.204;11.556;2023-01-30T03:52:46;96481.91;;;-4.26;100.00
57606;BME280;43430;48.204;11.556;2023-01-30T03:55:12;96481.34;;;-4.30;100.00
57606;BME280;43430;48.204;11.556;2023-01-30T03:57:37;96478.88;;;-4.32;100.00
57606;BME280;43430;48.204;11.556;2023-01-30T04:00:03;96471.59;;;-4.38;100.00
57606;BME280;43430;48.204;11.556;2023-01-30T04:02:29;96467.63;;;-4.31;100.00
57606;BME280;43430;48.204;11.556;2023-01-30T04:04:54;96467.88;;;-4.22;100.00
57606;BME280;43430;48.204;11.556;2023-01-30T04:07:20;96487.28;;;-4.18;100.00
57606;BME280;43430;48.204;11.556;2023-01-30T04:09:45;96473.69;;;-4.20;100.00
57606;BME280;43430;48.204;11.556;2023-01-30T04:12:11;96487.28;;;-4.18;100.00
57606;BME280;43430;48.204;11.556;2023-01-30T04:14:37;96491.41;;;-4.16;100.00
57606;BME280;43430;48.204;11.556;2023-01-30T04:17:02;96489.50;;;-4.14;100.00
57606;BME280;43430;48.204;11.556;2023-01-30T04:19:28;96485.66;;;-4.19;100.00
57606;BME280;43430;48.204;11.556;2023-01-30T04:21:53;96482.25;;;-4.20;100.00
57606;BME280;43430;48.204;11.556;2023-01-30T04:24:18;96487.50;;;-4.10;100.00
57606;BME280;43430;48.204;11.556;2023-01-30T04:26:44;96475.09;;;-3.94;100.00
57606;BME280;43430;48.204;11.556;2023-01-30T04:29:09;96465.94;;;-3.87;100.00
57606;BME280;43430;48.204;11.556;2023-01-30T04:31:35;96464.78;;;-3.94;100.00
57606;BME280;43430;48.204;11.556;2023-01-30T04:34:00;96481.88;;;-3.93;100.00
57606;BME280;43430;48.204;11.556;2023-01-30T04:36:26;96466.66;;;-3.96;100.00
57606;BME280;43430;48.204;11.556;2023-01-30T04:38:53;96472.75;;;-3.97;100.00
57606;BME280;43430;48.204;11.556;2023-01-30T04:41:18;96443.00;;;-3.90;100.00
57606;BME280;43430;48.204;11.556;2023-01-30T04:43:44;96441.22;;;-3.78;100.00
57606;BME280;43430;48.204;11.556;2023-01-30T04:46:09;96419.91;;;-3.80;100.00
57606;BME280;43430;48.204;11.556;2023-01-30T04:48:34;96421.19;;;-3.86;100.00
57606;BME280;43430;48.204;11.556;2023-01-30T04:51:00;96420.59;;;-3.78;100.00
57606;BME280;43430;48.204;11.556;2023-01-30T04:53:25;96416.19;;;-3.87;100.00
57606;BME280;43430;48.204;11.556;2023-01-30T04:55:51;96429.88;;;-3.87;100.00
57606;BME280;43430;48.204;11.556;2023-01-30T04:58:17;96428.00;;;-3.85;100.00
57606;BME280;43430;48.204;11.556;2023-01-30T05:00:46;96421.19;;;-3.86;100.00
57606;BME280;43430;48.204;11.556;2023-01-30T05:03:11;96427.28;;;-3.87;100.00
57606;BME280;43430;48.204;11.556;2023-01-30T05:05:37;96426.34;;;-3.74;100.00
57606;BME280;43430;48.204;11.556;2023-01-30T05:08:03;96411.31;;;-3.69;100.00
57606;BME280;43430;48.204;11.556;2023-01-30T05:10:29;96393.41;;;-3.71;100.00
57606;BME280;43430;48.204;11.556;2023-01-30T05:12:54;96389.78;;;-3.79;100.00
57606;BME280;43430;48.204;11.556;2023-01-30T05:15:19;96393.19;;;-3.79;100.00
57606;BME280;43430;48.204;11.556;2023-01-30T05:17:45;96387.44;;;-3.71;100.00
57606;BME280;43430;48.204;11.556;2023-01-30T05:20:11;96390.69;;;-3.69;100.00
57606;BME280;43430;48.204;11.556;2023-01-30T05:22:37;96401.56;;;-3.66;100.00
57606;BME280;43430;48.204;11.556;2023-01-30T05:25:03;96396.09;;;-3.72;100.00
57606;BME280;43430;48.204;11.556;2023-01-30T05:27:28;96399.63;;;-3.73;100.00
57606;BME280;43430;48.204;11.556;2023-01-30T05:29:54;96398.19;;;-3.66;100.00
57606;BME280;43430;48.204;11.556;2023-01-30T05:32:19;96395.84;;;-3.69;100.00
57606;BME280;43430;48.204;11.556;2023-01-30T05:34:46;96393.03;;;-3.66;100.00
57606;BME280;43430;48.204;11.556;2023-01-30T05:37:12;96398.31;;;-3.68;100.00
57606;BME280;43430;48.204;11.556;2023-01-30T05:39:37;96398.19;;;-3.66;100.00
57606;BME280;43430;48.204;11.556;2023-01-30T05:42:03;96394.31;;;-3.61;100.00
57606;BME280;43430;48.204;11.556;2023-01-30T05:44:29;96383.28;;;-3.63;100.00
57606;BME280;43430;48.204;11.556;2023-01-30T05:46:55;96395.28;;;-3.73;100.00
57606;BME280;43430;48.204;11.556;2023-01-30T05:49:20;96386.75;;;-3.73;100.00
57606;BME280;43430;48.204;11.556;2023-01-30T05:51:46;96375.69;;;-3.64;100.00
57606;BME280;43430;48.204;11.556;2023-01-30T05:54:12;96375.47;;;-3.61;100.00
57606;BME280;43430;48.204;11.556;2023-01-30T05:56:37;96382.00;;;-3.68;100.00
57606;BME280;43430;48.204;11.556;2023-01-30T05:59:02;96370.78;;;-3.67;100.00
57606;BME280;43430;48.204;11.556;2023-01-30T06:01:28;96375.47;;;-3.61;100.00
57606;BME280;43430;48.204;11.556;2023-01-30T06:03:55;96381.53;;;-3.62;100.00
57606;BME280;43430;48.204;11.556;2023-01-30T06:06:22;96378.84;;;-3.61;100.00
57606;BME280;43430;48.204;11.556;2023-01-30T06:08:52;96380.66;;;-3.51;100.00
57606;BME280;43430;48.204;11.556;2023-01-30T06:11:17;96375.41;;;-3.50;100.00
57606;BME280;43430;48.204;11.556;2023-01-30T06:13:43;96372.19;;;-3.42;100.00
57606;BME280;43430;48.204;11.556;2023-01-30T06:16:10;96361.06;;;-3.43;100.00
57606;BME280;43430;48.204;11.556;2023-01-30T06:18:39;96363.38;;;-3.40;100.00
57606;BME280;43430;48.204;11.556;2023-01-30T06:21:05;96363.16;;;-3.37;100.00
57606;BME280;43430;48.204;11.556;2023-01-30T06:23:31;96385.53;;;-3.37;100.00
57606;BME280;43430;48.204;11.556;2023-01-30T06:25:57;96395.72;;;-3.36;100.00
57606;BME280;43430;48.204;11.556;2023-01-30T06:28:24;96384.44;;;-3.35;100.00
57606;BME280;43430;48.204;11.556;2023-01-30T06:30:50;96374.13;;;-3.35;100.00
57606;BME280;43430;48.204;11.556;2023-01-30T06:33:16;96372.50;;;-3.36;100.00
57606;BME280;43430;48.204;11.556;2023-01-30T06:35:42;96374.25;;;-3.36;100.00
57606;BME280;43430;48.204;11.556;2023-01-30T06:38:09;96386.53;;;-3.28;100.00
57606;BME280;43430;48.204;11.556;2023-01-30T06:40:39;96388.84;;;-3.25;100.00
57606;BME280;43430;48.204;11.556;2023-01-30T06:43:05;96376.94;;;-3.17;100.00
57606;BME280;43430;48.204;11.556;2023-01-30T06:45:31;96388.34;;;-3.19;100.00
57606;BME280;43430;48.204;11.556;2023-01-30T06:47:56;96385.13;;;-3.12;100.00
57606;BME280;43430;48.204;11.556;2023-01-30T06:50:24;96379.09;;;-3.01;100.00
57606;BME280;43430;48.204;11.556;2023-01-30T06:52:51;96383.03;;;-2.97;100.00
57606;BME280;43430;48.204;11.556;2023-01-30T06:55:19;96387.38;;;-2.97;100.00
57606;BME280;43430;48.204;11.556;2023-01-30T06:57:45;96380.59;;;-2.98;100.00
57606;BME280;43430;48.204;11.556;2023-01-30T07:00:13;96375.75;;;-2.92;100.00
57606;BME280;43430;48.204;11.556;2023-01-30T07:02:39;96381.31;;;-2.87;100.00
57606;BME280;43430;48.204;11.556;2023-01-30T07:05:06;96383.25;;;-2.79;100.00
57606;BME280;43430;48.204;11.556;2023-01-30T07:07:33;96373.50;;;-2.75;100.00
57606;BME280;43430;48.204;11.556;2023-01-30T07:09:58;96373.94;;;-2.70;100.00
57606;BME280;43430;48.204;11.556;2023-01-30T07:12:25;96367.19;;;-2.61;100.00
57606;BME280;43430;48.204;11.556;2023-01-30T07:14:51;96379.44;;;-2.54;100.00
57606;BME280;43430;48.204;11.556;2023-01-30T07:17:18;96384.59;;;-2.54;100.00
57606;BME280;43430;48.204;11.556;2023-01-30T07:19:43;96387.59;;;-2.49;100.00
57606;BME280;43430;48.204;11.556;2023-01-30T07:22:09;96387.09;;;-2.43;100.00
57606;BME280;43430;48.204;11.556;2023-01-30T07:24:35;96376.34;;;-2.38;100.00
57606;BME280;43430;48.204;11.556;2023-01-30T07:27:03;96363.47;;;-2.28;100.00
57606;BME280;43430;48.204;11.556;2023-01-30T07:29:29;96359.41;;;-2.21;100.00
57606;BME280;43430;48.204;11.556;2023-01-30T07:31:54;96348.81;;;-2.18;100.00
57606;BME280;43430;48.204;11.556;2023-01-30T07:34:20;96356.28;;;-2.15;100.00
57606;BME280;43430;48.204;11.556;2023-01-30T07:36:45;96355.34;;;-2.14;100.00
57606;BME280;43430;48.204;11.556;2023-01-30T07:39:10;96346.09;;;-2.07;100.00
57606;BME280;43430;48.204;11.556;2023-01-30T07:41:36;96344.50;;;-1.98;100.00
57606;BME280;43430;48.204;11.556;2023-01-30T07:44:02;96340.97;;;-1.87;100.00
57606;BME280;43430;48.204;11.556;2023-01-30T07:46:27;96345.59;;;-1.81;100.00
57606;BME280;43430;48.204;11.556;2023-01-30T07:49:03;96328.59;;;-1.74;100.00
57606;BME280;43430;48.204;11.556;2023-01-30T07:51:29;96323.97;;;-1.61;100.00
57606;BME280;43430;48.204;11.556;2023-01-30T07:53:54;96309.91;;;-1.58;100.00
57606;BME280;43430;48.204;11.556;2023-01-30T07:56:20;96305.53;;;-1.48;100.00
57606;BME280;43430;48.204;11.556;2023-01-30T07:58:49;96297.25;;;-1.42;100.00
57606;BME280;43430;48.204;11.556;2023-01-30T08:01:15;96304.97;;;-1.32;100.00
57606;BME280;43430;48.204;11.556;2023-01-30T08:03:41;96303.34;;;-1.33;100.00
57606;BME280;43430;48.204;11.556;2023-01-30T08:06:08;96297.91;;;-1.30;100.00
57606;BME280;43430;48.204;11.556;2023-01-30T08:08:34;96297.31;;;-1.24;100.00
57606;BME280;43430;48.204;11.556;2023-01-30T08:10:59;96289.97;;;-1.19;100.00
57606;BME280;43430;48.204;11.556;2023-01-30T08:13:25;96298.97;;;-1.23;100.00
57606;BME280;43430;48.204;11.556;2023-01-30T08:15:50;96296.91;;;-1.20;100.00
57606;BME280;43430;48.204;11.556;2023-01-30T08:18:16;96288.63;;;-1.23;100.00
57606;BME280;43430;48.204;11.556;2023-01-30T08:20:41;96290.78;;;-1.18;100.00
57606;BME280;43430;48.204;11.556;2023-01-30T08:23:09;96290.69;;;-1.27;100.00
57606;BME280;43430;48.204;11.556;2023-01-30T08:25:35;96288.22;;;-1.28;100.00
57606;BME280;43430;48.204;11.556;2023-01-30T08:28:01;96290.16;;;-1.30;100.00
57606;BME280;43430;48.204;11.556;2023-01-30T08:30:27;96295.31;;;-1.30;100.00
57606;BME280;43430;48.204;11.556;2023-01-30T08:32:54;96289.88;;;-1.37;100.00
57606;BME280;43430;48.204;11.556;2023-01-30T08:35:20;96284.56;;;-1.35;100.00
57606;BME280;43430;48.204;11.556;2023-01-30T08:37:45;96268.66;;;-1.31;100.00
57606;BME280;43430;48.204;11.556;2023-01-30T08:40:11;96273.50;;;-1.28;100.00
57606;BME280;43430;48.204;11.556;2023-01-30T08:42:36;96268.88;;;-1.24;100.00
57606;BME280;43430;48.204;11.556;2023-01-30T08:45:02;96280.69;;;-1.12;100.00
57606;BME280;43430;48.204;11.556;2023-01-30T08:47:28;96273.94;;;-0.95;100.00
57606;BME280;43430;48.204;11.556;2023-01-30T08:49:53;96278.13;;;-0.84;100.00
57606;BME280;43430;48.204;11.556;2023-01-30T08:52:19;96273.19;;;-0.78;100.00
57606;BME280;43430;48.204;11.556;2023-01-30T08:54:44;96257.38;;;-0.75;100.00
57606;BME280;43430;48.204;11.556;2023-01-30T08:57:10;96262.78;;;-0.68;100.00
57606;BME280;43430;48.204;11.556;2023-01-30T08:59:36;96252.66;;;-0.61;100.00
57606;BME280;43430;48.204;11.556;2023-01-30T09:02:01;96247.44;;;-0.52;100.00
57606;BME280;43430;48.204;11.556;2023-01-30T09:04:30;96239.00;;;-0.54;100.00
57606;BME280;43430;48.204;11.556;2023-01-30T09:06:55;96240.09;;;-0.56;100.00
57606;BME280;43430;48.204;11.556;2023-01-30T09:09:21;96252.75;;;-0.53;100.00
57606;BME280;43430;48.204;11.556;2023-01-30T09:11:46;96241.00;;;-0.47;100.00
57606;BME280;43430;48.204;11.556;2023-01-30T09:14:15;96226.94;;;-0.27;100.00
57606;BME280;43430;48.204;11.556;2023-01-30T09:16:47;96222.41;;;-0.25;100.00
57606;BME280;43430;48.204;11.556;2023-01-30T09:19:13;96227.59;;;-0.25;100.00
57606;BME280;43430;48.204;11.556;2023-01-30T09:21:39;96227.97;;;-0.20;100.00
57606;BME280;43430;48.204;11.556;2023-01-30T09:24:05;96214.28;;;-0.12;100.00
57606;BME280;43430;48.204;11.556;2023-01-30T09:26:30;96224.41;;;-0.01;100.00
57606;BME280;43430;48.204;11.556;2023-01-30T09:28:56;96232.91;;;0.09;100.00
57606;BME280;43430;48.204;11.556;2023-01-30T09:31:21;96245.66;;;0.03;100.00
57606;BME280;43430;48.204;11.556;2023-01-30T09:33:47;96250.53;;;0.06;100.00
57606;BME280;43430;48.204;11.556;2023-01-30T09:36:12;96241.50;;;0.10;100.00
57606;BME280;43430;48.204;11.556;2023-01-30T09:38:37;96239.88;;;0.09;100.00
57606;BME280;43430;48.204;11.556;2023-01-30T09:44:29;96223.22;;;0.11;100.00
57606;BME280;43430;48.204;11.556;2023-01-30T09:52:54;96208.09;;;0.07;100.00
57606;BME280;43430;48.204;11.556;2023-01-30T09:55:23;96198.69;;;0.06;100.00
57606;BME280;43430;48.204;11.556;2023-01-30T09:57:51;96203.53;;;0.01;100.00
57606;BME280;43430;48.204;11.556;2023-01-30T10:00:37;96204.91;;;0.13;100.00
57606;BME280;43430;48.204;11.556;2023-01-30T10:05:45;96212.44;;;0.24;100.00
57606;BME280;43430;48.204;11.556;2023-01-30T10:19:11;96189.00;;;0.60;100.00
57606;BME280;43430;48.204;11.556;2023-01-30T10:22:24;96169.94;;;0.77;100.00
57606;BME280;43430;48.204;11.556;2023-01-30T10:27:31;96158.66;;;0.94;100.00
57606;BME280;43430;48.204;11.556;2023-01-30T10:30:00;96152.22;;;1.07;100.00
57606;BME280;43430;48.204;11.556;2023-01-30T10:32:40;96141.81;;;1.07;100.00
57606;BME280;43430;48.204;11.556;2023-01-30T10:35:22;96132.75;;;1.19;100.00
57606;BME280;43430;48.204;11.556;2023-01-30T10:37:57;96131.81;;;1.36;100.00
57606;BME280;43430;48.204;11.556;2023-01-30T10:40:37;96139.16;;;1.65;100.00
57606;BME280;43430;48.204;11.556;2023-01-30T10:43:24;96151.97;;;1.75;100.00
57606;BME280;43430;48.204;11.556;2023-01-30T10:48:56;96139.63;;;1.77;100.00
57606;BME280;43430;48.204;11.556;2023-01-30T10:54:16;96142.06;;;1.79;100.00
57606;BME280;43430;48.204;11.556;2023-01-30T10:59:26;96148.22;;;2.02;100.00
57606;BME280;43430;48.204;11.556;2023-01-30T11:01:59;96155.88;;;2.04;100.00
57606;BME280;43430;48.204;11.556;2023-01-30T11:06:59;96132.34;;;1.73;100.00
57606;BME280;43430;48.204;11.556;2023-01-30T11:09:37;96129.06;;;1.71;100.00
57606;BME280;43430;48.204;11.556;2023-01-30T11:12:03;96110.72;;;1.72;100.00
57606;BME280;43430;48.204;11.556;2023-01-30T11:14:48;96117.88;;;1.62;100.00
57606;BME280;43430;48.204;11.556;2023-01-30T11:17:19;96110.53;;;1.57;100.00
57606;BME280;43430;48.204;11.556;2023-01-30T11:19:53;96109.09;;;1.63;100.00
57606;BME280;43430;48.204;11.556;2023-01-30T11:22:20;96107.16;;;1.49;100.00
57606;BME280;43430;48.204;11.556;2023-01-30T11:24:45;96087.47;;;1.54;100.00
57606;BME280;43430;48.204;11.556;2023-01-30T11:27:26;96080.81;;;1.60;100.00
57606;BME280;43430;48.204;11.556;2023-01-30T11:30:28;96073.34;;;1.65;100.00
57606;BME280;43430;48.204;11.556;2023-01-30T11:33:15;96067.16;;;1.74;100.00
57606;BME280;43430;48.204;11.556;2023-01-30T11:35:57;96068.91;;;1.98;100.00
57606;BME280;43430;48.204;11.556;2023-01-30T11:38:26;96068.38;;;2.19;100.00
57606;BME280;43430;48.204;11.556;2023-01-30T11:41:03;96069.50;;;2.25;100.00
57606;BME280;43430;48.204;11.556;2023-01-30T11:43:32;96058.28;;;2.24;100.00
57606;BME280;43430;48.204;11.556;2023-01-30T11:45:57;96058.91;;;2.34;100.00
57606;BME280;43430;48.204;11.556;2023-01-30T11:48:29;96052.91;;;2.26;100.00
57606;BME280;43430;48.204;11.556;2023-01-30T11:51:03;96050.81;;;2.13;100.00
57606;BME280;43430;48.204;11.556;2023-01-30T11:53:34;96046.78;;;2.10;100.00
57606;BME280;43430;48.204;11.556;2023-01-30T11:56:31;96035.06;;;2.06;100.00
57606;BME280;43430;48.204;11.556;2023-01-30T11:58:59;96036.88;;;2.06;100.00
57606;BME280;43430;48.204;11.556;2023-01-30T12:01:28;96044.19;;;2.10;100.00
57606;BME280;43430;48.204;11.556;2023-01-30T12:03:55;96047.13;;;2.07;100.00
57606;BME280;43430;48.204;11.556;2023-01-30T12:06:33;96046.66;;;2.04;100.00
57606;BME280;43430;48.204;11.556;2023-01-30T12:08:58;96046.13;;;2.08;100.00
57606;BME280;43430;48.204;11.556;2023-01-30T12:22:32;96014.28;;;2.06;100.00
57606;BME280;43430;48.204;11.556;2023-01-30T12:25:02;96005.03;;;2.04;100.00
57606;BME280;43430;48.204;11.556;2023-01-30T12:27:57;96014.78;;;2.10;100.00
57606;BME280;43430;48.204;11.556;2023-01-30T12:30:42;96017.06;;;2.05;100.00
57606;BME280;43430;48.204;11.556;2023-01-30T12:33:12;96015.44;;;2.04;100.00
57606;BME280;43430;48.204;11.556;2023-01-30T12:35:58;96006.31;;;2.08;100.00
57606;BME280;43430;48.204;11.556;2023-01-30T12:52:27;95960.13;;;2.18;100.00
57606;BME280;43430;48.204;11.556;2023-01-30T12:55:07;95989.34;;;2.20;100.00
57606;BME280;43430;48.204;11.556;2023-01-30T13:06:22;96013.69;;;2.35;100.00
57606;BME280;43430;48.204;11.556;2023-01-30T13:09:28;95990.63;;;2.32;100.00
57606;BME280;43430;48.204;11.556;2023-01-30T13:14:34;95992.88;;;2.35;100.00
57606;BME280;43430;48.204;11.556;2023-01-30T13:17:04;95987.34;;;2.38;100.00
57606;BME280;43430;48.204;11.556;2023-01-30T13:19:45;96014.03;;;2.32;100.00
57606;BME280;43430;48.204;11.556;2023-01-30T13:27:54;96013.66;;;2.44;100.00
57606;BME280;43430;48.204;11.556;2023-01-30T13:30:21;96013.81;;;2.42;100.00
57606;BME280;43430;48.204;11.556;2023-01-30T13:32:53;96019.78;;;2.51;100.00
57606;BME280;43430;48.204;11.556;2023-01-30T13:35:28;96027.44;;;2.52;100.00
57606;BME280;43430;48.204;11.556;2023-01-30T13:37:56;96027.59;;;2.51;100.00
57606;BME280;43430;48.204;11.556;2023-01-30T13:40:26;96030.84;;;2.53;100.00
57606;BME280;43430;48.204;11.556;2023-01-30T13:42:56;96046.47;;;2.53;100.00
57606;BME280;43430;48.204;11.556;2023-01-30T13:45:32;96036.72;;;2.47;100.00
57606;BME280;43430;48.204;11.556;2023-01-30T13:54:12;96014.31;;;2.46;100.00
57606;BME280;43430;48.204;11.556;2023-01-30T14:12:40;96064.41;;;2.40;100.00
57606;BME280;43430;48.204;11.556;2023-01-30T14:17:37;96072.06;;;2.33;100.00
57606;BME280;43430;48.204;11.556;2023-01-30T14:20:14;96075.47;;;2.33;100.00
57606;BME280;43430;48.204;11.556;2023-01-30T14:27:53;96086.25;;;2.22;100.00
57606;BME280;43430;48.204;11.556;2023-01-30T14:30:45;96090.19;;;2.18;100.00
57606;BME280;43430;48.204;11.556;2023-01-30T14:38:39;96107.78;;;2.00;100.00
57606;BME280;43430;48.204;11.556;2023-01-30T14:43:46;96120.78;;;2.00;100.00
57606;BME280;43430;48.204;11.556;2023-01-30T14:54:24;96141.41;;;1.77;100.00
57606;BME280;43430;48.204;11.556;2023-01-30T14:57:03;96144.16;;;1.75;100.00
57606;BME280;43430;48.204;11.556;2023-01-30T14:59:39;96141.56;;;1.75;100.00
57606;BME280;43430;48.204;11.556;2023-01-30T15:05:09;96155.88;;;1.63;100.00
57606;BME280;43430;48.204;11.556;2023-01-30T15:07:48;96178.47;;;1.62;100.00
57606;BME280;43430;48.204;11.556;2023-01-30T15:21:34;96189.00;;;1.61;100.00
57606;BME280;43430;48.204;11.556;2023-01-30T15:29:44;96200.69;;;1.49;100.00
57606;BME280;43430;48.204;11.556;2023-01-30T15:32:33;96208.47;;;1.49;100.00
57606;BME280;43430;48.204;11.556;2023-01-30T15:37:39;96213.00;;;1.47;100.00
57606;BME280;43430;48.204;11.556;2023-01-30T15:42:50;96232.81;;;1.48;100.00
57606;BME280;43430;48.204;11.556;2023-01-30T15:50:58;96252.31;;;1.43;100.00
57606;BME280;43430;48.204;11.556;2023-01-30T15:53:29;96249.69;;;1.43;100.00
57606;BME280;43430;48.204;11.556;2023-01-30T15:55:57;96260.09;;;1.43;100.00
57606;BME280;43430;48.204;11.556;2023-01-30T15:58:24;96273.25;;;1.42;100.00
57606;BME280;43430;48.204;11.556;2023-01-30T16:00:53;96273.44;;;1.49;100.00
57606;BME280;43430;48.204;11.556;2023-01-30T16:03:29;96269.19;;;1.39;100.00
57606;BME280;43430;48.204;11.556;2023-01-30T16:05:56;96274.69;;;1.36;100.00